Time;durP1;ratioP1;P1;durP2;ratioP2;P2;SDS_P1;SDS_P2;PMS_P1;PMS_P2;Temp;Humidity;BMP_temperature;BMP_pressure;BME280_temperature;BME280_humidity;BME280_pressure;Samples;Min_cycle;Max_cycle;Signal;HPM_P1;HPM_P2
2022/05/07 00:01:57;;;;;;;31.67;18.88;;;;;;;11.68;92.41;102264.88;5011046;28;20080;-75
2022/05/07 00:04:22;;;;;;;34.25;21.23;;;;;;;11.73;92.14;102273.25;5022553;28;20385;-75
2022/05/07 00:06:48;;;;;;;31.27;21.05;;;;;;;11.69;92.86;102262.09;5026625;28;20025;-75
2022/05/07 00:09:14;;;;;;;33.63;20.52;;;;;;;11.58;95.16;102258.63;5023836;28;20417;-75
2022/05/07 00:11:39;;;;;;;28.92;17.67;;;;;;;11.69;93.27;102267.41;5018056;28;20117;-75
2022/05/07 00:14:05;;;;;;;29.83;19.45;;;;;;;11.67;91.53;102255.22;5020126;28;20064;-75
2022/05/07 00:19:14;;;;;;;32.80;18.58;;;;;;;11.85;88.77;102269.66;5013885;28;20052;-75
2022/05/07 00:21:40;;;;;;;32.83;18.77;;;;;;;11.92;87.09;102268.22;5015782;28;20026;-75
2022/05/07 00:24:05;;;;;;;33.42;20.50;;;;;;;11.97;87.94;102264.34;5008715;28;20080;-75
2022/05/07 00:26:31;;;;;;;28.23;17.33;;;;;;;11.88;87.34;102240.31;5022953;28;20037;-74
2022/05/07 00:28:56;;;;;;;31.63;19.42;;;;;;;11.90;86.87;102238.38;5023848;28;20029;-74
2022/05/07 00:31:22;;;;;;;30.02;18.92;;;;;;;12.01;86.20;102255.19;5003087;28;20108;-74
2022/05/07 00:33:47;;;;;;;30.58;17.92;;;;;;;11.86;85.86;102234.28;5023859;28;20030;-74
2022/05/07 00:36:12;;;;;;;31.42;19.48;;;;;;;11.94;86.61;102244.28;5008017;28;20400;-75
2022/05/07 00:38:38;;;;;;;37.60;20.55;;;;;;;11.97;90.14;102251.13;5024112;28;20029;-75
2022/05/07 00:41:03;;;;;;;35.42;21.15;;;;;;;11.79;91.30;102230.44;5021745;28;20470;-74
2022/05/07 00:43:40;;;;;;;44.33;22.45;;;;;;;11.65;92.85;102238.66;4993900;28;20081;-74
2022/05/07 00:46:06;;;;;;;43.33;23.50;;;;;;;11.67;93.89;102245.53;5014423;28;20026;-75
2022/05/07 00:48:33;;;;;;;35.72;21.90;;;;;;;11.59;94.53;102229.41;5022994;28;20072;-75
2022/05/07 00:53:45;;;;;;;42.92;23.50;;;;;;;11.61;94.59;102250.47;5019731;28;20609;-74
2022/05/07 00:56:10;;;;;;;40.17;23.73;;;;;;;11.42;96.40;102227.28;5026435;28;20025;-74
2022/05/07 00:58:36;;;;;;;46.53;25.27;;;;;;;11.41;97.01;102246.72;5021847;28;20042;-75
2022/05/07 01:01:01;;;;;;;48.50;26.80;;;;;;;11.12;98.44;102226.06;5020651;28;20498;-74
2022/05/07 01:03:27;;;;;;;49.55;28.38;;;;;;;11.15;99.29;102251.41;5014801;28;20036;-74
2022/05/07 01:05:53;;;;;;;45.80;27.20;;;;;;;10.95;100.00;102245.88;5028678;28;20029;-73
2022/05/07 01:08:20;;;;;;;50.13;28.80;;;;;;;10.79;100.00;102246.22;4998133;28;20418;-73
2022/05/07 01:10:45;;;;;;;51.17;28.75;;;;;;;10.68;100.00;102254.13;5021604;28;20032;-73
2022/05/07 01:13:11;;;;;;;41.55;26.50;;;;;;;10.70;100.00;102246.91;5023822;28;20029;-73
2022/05/07 01:15:47;;;;;;;51.35;27.52;;;;;;;10.64;100.00;102229.72;5024538;28;20033;-74
2022/05/07 01:18:13;;;;;;;53.05;28.80;;;;;;;10.66;100.00;102235.75;5012190;28;20062;-74
2022/05/07 01:20:39;;;;;;;53.03;29.90;;;;;;;10.68;100.00;102230.34;5019102;28;20451;-72
2022/05/07 01:23:05;;;;;;;48.97;29.30;;;;;;;10.75;100.00;102238.66;5024288;28;20044;-74
2022/05/07 01:25:32;;;;;;;38.10;23.30;;;;;;;10.79;100.00;102221.59;5000795;28;20025;-74
2022/05/07 01:27:58;;;;;;;46.03;26.10;;;;;;;10.96;100.00;102237.00;5035162;28;20116;-73
2022/05/07 01:30:24;;;;;;;46.50;26.83;;;;;;;11.05;100.00;102231.00;5025063;28;20079;-74
2022/05/07 01:32:50;;;;;;;42.17;26.42;;;;;;;11.10;100.00;102228.84;5018348;28;20029;-74
2022/05/07 01:35:15;;;;;;;50.80;26.40;;;;;;;11.15;100.00;102227.63;5022526;28;20038;-74
2022/05/07 01:37:41;;;;;;;44.85;26.30;;;;;;;11.15;100.00;102236.41;5010535;28;20402;-73
2022/05/07 01:40:07;;;;;;;51.33;28.90;;;;;;;11.21;100.00;102229.81;5021682;28;20069;-73
2022/05/07 01:42:32;;;;;;;53.50;29.15;;;;;;;11.18;100.00;102235.34;5022896;28;20353;-73
2022/05/07 01:44:58;;;;;;;48.53;28.25;;;;;;;11.16;100.00;102231.97;5026375;28;20033;-74
2022/05/07 01:50:07;;;;;;;48.67;28.25;;;;;;;11.07;100.00;102202.66;5027667;28;20449;-73
2022/05/07 01:52:33;;;;;;;50.88;28.33;;;;;;;11.22;100.00;102220.94;5018353;28;20054;-73
2022/05/07 01:54:58;;;;;;;44.92;27.55;;;;;;;11.14;100.00;102221.50;5005516;28;20033;-73
2022/05/07 01:57:23;;;;;;;47.13;25.77;;;;;;;11.04;100.00;102213.47;5021381;28;20036;-73
2022/05/07 01:59:49;;;;;;;48.72;27.00;;;;;;;10.85;100.00;102186.81;5020104;28;20026;-73
2022/05/07 02:02:14;;;;;;;51.25;26.85;;;;;;;11.02;100.00;102219.84;5018546;28;20069;-73
2022/05/07 02:04:39;;;;;;;49.83;25.83;;;;;;;11.04;100.00;102215.25;5020836;28;20551;-73
2022/05/07 02:07:07;;;;;;;47.55;27.50;;;;;;;11.08;100.00;102219.34;5026005;28;20033;-73
2022/05/07 02:09:32;;;;;;;45.38;26.00;;;;;;;11.11;100.00;102222.59;5021472;28;20108;-74
2022/05/07 02:11:58;;;;;;;42.90;24.65;;;;;;;11.09;100.00;102219.22;5021442;28;20148;-73
2022/05/07 02:14:23;;;;;;;44.30;25.13;;;;;;;11.14;100.00;102218.03;5011708;28;20080;-73
2022/05/07 02:16:48;;;;;;;43.72;26.85;;;;;;;11.09;100.00;102208.66;5024157;28;20480;-73
2022/05/07 02:19:14;;;;;;;48.72;27.15;;;;;;;11.17;100.00;102217.78;5016525;28;20033;-73
2022/05/07 02:21:39;;;;;;;42.83;24.98;;;;;;;11.19;100.00;102218.50;5024968;28;20081;-74
2022/05/07 02:24:04;;;;;;;46.47;26.38;;;;;;;11.21;100.00;102214.78;5014732;28;20071;-73
2022/05/07 02:26:30;;;;;;;41.92;24.88;;;;;;;11.28;100.00;102216.00;5010570;28;20044;-73
2022/05/07 02:28:55;;;;;;;51.03;26.70;;;;;;;11.30;100.00;102216.72;5018360;28;20493;-73
2022/05/07 02:31:21;;;;;;;49.95;27.17;;;;;;;11.23;100.00;102196.16;5019397;28;20117;-73
2022/05/07 02:33:46;;;;;;;49.22;25.75;;;;;;;11.32;100.00;102206.88;5026552;28;20022;-73
2022/05/07 02:36:11;;;;;;;42.20;25.02;;;;;;;11.32;100.00;102208.66;5020189;28;20117;-74
2022/05/07 02:38:38;;;;;;;51.20;28.02;;;;;;;11.32;100.00;102217.44;5025365;28;20137;-73
2022/05/07 02:43:48;;;;;;;45.85;25.85;;;;;;;11.37;100.00;102213.59;5004234;28;20072;-74
2022/05/07 02:46:14;;;;;;;51.00;26.50;;;;;;;11.37;100.00;102213.59;5023125;28;20029;-75
2022/05/07 02:48:44;;;;;;;48.08;26.95;;;;;;;11.35;100.00;102213.72;5017346;28;20021;-74
2022/05/07 02:51:09;;;;;;;46.67;26.70;;;;;;;11.39;100.00;102217.78;5021053;28;20079;-74
2022/05/07 02:53:35;;;;;;;44.53;26.95;;;;;;;11.35;100.00;102208.41;5017767;28;20046;-73
2022/05/07 02:56:00;;;;;;;48.50;25.95;;;;;;;11.41;100.00;102221.16;5021353;28;20091;-73
2022/05/07 02:58:25;;;;;;;46.30;26.25;;;;;;;11.35;100.00;102200.50;5014076;28;20025;-73
2022/05/07 03:00:52;;;;;;;45.95;27.50;;;;;;;11.51;100.00;102224.72;4999081;28;20070;-74
2022/05/07 03:03:18;;;;;;;49.58;28.05;;;;;;;11.58;100.00;102218.94;5014140;28;20060;-73
2022/05/07 03:05:43;;;;;;;44.05;26.42;;;;;;;11.59;100.00;102212.72;5019086;28;20488;-73
2022/05/07 03:08:08;;;;;;;52.22;27.98;;;;;;;11.53;100.00;102212.22;5019850;28;20088;-73
2022/05/07 03:10:34;;;;;;;55.15;29.05;;;;;;;11.48;100.00;102190.63;5018899;28;20088;-73
2022/05/07 03:13:00;;;;;;;51.53;26.58;;;;;;;11.60;100.00;102227.59;5014794;28;20109;-73
2022/05/07 03:15:25;;;;;;;47.65;27.45;;;;;;;11.58;100.00;102216.31;5019664;28;20477;-74
2022/05/07 03:17:51;;;;;;;46.72;26.88;;;;;;;11.52;100.00;102202.63;5021666;28;20049;-73
2022/05/07 03:20:17;;;;;;;51.05;27.55;;;;;;;11.66;100.00;102219.19;5017116;28;20033;-73
2022/05/07 03:22:44;;;;;;;54.40;26.02;;;;;;;11.70;100.00;102215.34;5020244;28;20109;-73
2022/05/07 03:25:09;;;;;;;46.72;27.02;;;;;;;11.67;100.00;102211.13;5019674;28;20452;-73
2022/05/07 03:27:35;;;;;;;48.72;28.02;;;;;;;11.64;100.00;102216.66;5016443;28;20030;-73
2022/05/07 03:30:00;;;;;;;50.00;26.35;;;;;;;11.58;100.00;102205.72;5019986;28;20065;-72
2022/05/07 03:32:26;;;;;;;53.20;26.58;;;;;;;11.55;100.00;102200.69;5017136;28;20533;-72
2022/05/07 03:34:51;;;;;;;47.22;26.45;;;;;;;11.71;100.00;102230.22;4983328;28;20061;-72
2022/05/07 03:37:16;;;;;;;51.00;27.75;;;;;;;11.75;100.00;102231.66;5017505;28;20037;-73
2022/05/07 03:39:42;;;;;;;43.55;24.83;;;;;;;11.65;100.00;102196.34;5021851;28;20645;-73
2022/05/07 03:42:07;;;;;;;38.28;22.33;;;;;;;11.78;100.00;102218.22;5016349;28;20436;-73
2022/05/07 03:44:33;;;;;;;37.83;21.58;;;;;;;11.83;100.00;102239.81;5019747;28;20022;-73
2022/05/07 03:46:58;;;;;;;35.88;23.05;;;;;;;11.85;98.01;102229.13;5021567;28;20409;-73
2022/05/07 03:49:23;;;;;;;41.05;22.48;;;;;;;11.86;97.30;102236.91;5018059;28;20397;-73
2022/05/07 03:54:33;;;;;;;39.25;21.52;;;;;;;11.91;94.87;102233.94;5016597;28;20048;-73
2022/05/07 03:56:58;;;;;;;31.27;20.45;;;;;;;11.86;93.85;102221.03;5025979;28;20042;-73
2022/05/07 03:59:24;;;;;;;38.38;22.33;;;;;;;11.98;93.98;102226.34;5016041;28;20117;-73
2022/05/07 04:01:49;;;;;;;42.03;22.15;;;;;;;11.99;95.12;102231.50;5017092;28;20047;-73
2022/05/07 04:04:14;;;;;;;41.47;23.65;;;;;;;11.88;96.48;102215.66;5017837;28;20049;-73
2022/05/07 04:06:40;;;;;;;38.15;23.10;;;;;;;11.99;95.83;102235.97;5018893;28;20025;-73
2022/05/07 04:09:05;;;;;;;37.50;22.45;;;;;;;12.00;97.32;102234.97;5018354;28;20033;-73
2022/05/07 04:11:30;;;;;;;33.33;20.70;;;;;;;11.89;96.55;102223.50;5016936;28;20575;-73
2022/05/07 04:13:56;;;;;;;38.03;22.55;;;;;;;11.97;94.96;102238.72;5016921;28;20037;-73
2022/05/07 04:16:21;;;;;;;35.17;20.95;;;;;;;11.97;93.06;102243.19;5020343;28;20030;-72
2022/05/07 04:18:47;;;;;;;35.47;20.42;;;;;;;11.91;93.17;102231.28;5021319;28;20041;-74
2022/05/07 04:21:12;;;;;;;36.38;20.70;;;;;;;11.96;92.30;102244.16;5020846;28;20124;-72
2022/05/07 04:23:38;;;;;;;38.45;22.13;;;;;;;11.96;91.99;102241.53;5023923;28;20038;-72
2022/05/07 04:26:03;;;;;;;33.08;19.92;;;;;;;11.91;91.76;102234.78;5021737;28;20030;-72
2022/05/07 04:28:28;;;;;;;36.15;21.27;;;;;;;11.92;92.64;102238.28;5022833;28;20038;-74
2022/05/07 04:30:54;;;;;;;33.50;20.50;;;;;;;11.84;93.11;102238.84;5022322;28;20025;-73
2022/05/07 04:33:19;;;;;;;35.60;21.83;;;;;;;11.99;92.97;102257.13;5021323;28;20063;-72
2022/05/07 04:35:48;;;;;;;36.08;21.90;;;;;;;11.99;92.56;102262.41;5021623;28;20033;-73
2022/05/07 04:38:13;;;;;;;38.13;22.10;;;;;;;11.99;93.49;102255.31;5021829;28;20116;-73
2022/05/07 04:40:39;;;;;;;37.05;20.70;;;;;;;12.03;91.72;102258.56;5017208;28;20117;-73
2022/05/07 04:43:05;;;;;;;32.10;20.42;;;;;;;11.99;91.49;102250.03;5023122;28;20104;-73
2022/05/07 04:45:30;;;;;;;31.65;20.45;;;;;;;12.10;90.71;102255.28;5020515;28;20481;-73
2022/05/07 04:47:55;;;;;;;37.15;22.33;;;;;;;12.15;91.89;102247.00;5021854;28;20045;-73
2022/05/07 04:50:21;;;;;;;32.72;20.50;;;;;;;12.17;92.68;102255.63;5020307;28;20022;-73
2022/05/07 04:52:46;;;;;;;33.45;21.15;;;;;;;12.16;92.22;102248.66;5029382;28;20095;-73
2022/05/07 04:55:12;;;;;;;33.20;20.65;;;;;;;12.18;91.55;102245.88;5027872;28;20063;-73
2022/05/07 04:57:37;;;;;;;35.38;21.67;;;;;;;12.27;91.01;102251.25;5006813;28;20521;-73
2022/05/07 05:00:07;;;;;;;36.25;21.00;;;;;;;12.34;91.29;102257.72;5001997;28;20624;-73
2022/05/07 05:02:32;;;;;;;40.55;24.17;;;;;;;12.15;93.64;102215.22;5022375;28;20026;-73
2022/05/07 05:04:58;;;;;;;41.08;25.05;;;;;;;12.41;95.37;102258.06;5004505;28;20428;-73
2022/05/07 05:07:23;;;;;;;39.45;23.73;;;;;;;12.45;95.52;102261.28;5029197;28;20057;-73
2022/05/07 05:09:49;;;;;;;39.78;24.58;;;;;;;12.46;96.52;102261.16;5020424;28;20482;-73
2022/05/07 05:12:14;;;;;;;40.08;24.15;;;;;;;12.48;97.14;102259.22;5021533;28;20033;-73
2022/05/07 05:17:24;;;;;;;41.22;24.70;;;;;;;12.45;97.94;102248.03;5022578;28;20044;-73
2022/05/07 05:19:49;;;;;;;38.53;23.00;;;;;;;12.55;96.15;102259.56;5017883;28;20037;-73
2022/05/07 05:22:15;;;;;;;42.25;23.00;;;;;;;12.64;95.01;102268.53;5019222;28;20401;-72
2022/05/07 05:24:40;;;;;;;42.38;22.90;;;;;;;12.58;95.22;102254.00;5020159;28;20397;-72
2022/05/07 05:27:05;;;;;;;36.47;22.95;;;;;;;12.74;94.87;102275.59;5021408;28;20040;-72
2022/05/07 05:29:32;;;;;;;42.17;25.30;;;;;;;12.70;94.59;102255.63;5018916;28;20038;-72
2022/05/07 05:31:58;;;;;;;44.92;24.48;;;;;;;12.87;94.73;102275.41;5020362;28;20026;-72
2022/05/07 05:34:23;;;;;;;44.60;26.35;;;;;;;12.93;96.38;102280.19;5020101;28;20083;-72
2022/05/07 05:36:48;;;;;;;43.45;23.73;;;;;;;12.83;95.88;102257.25;5019983;28;20029;-73
2022/05/07 05:39:14;;;;;;;42.13;26.10;;;;;;;13.00;95.13;102280.50;5021463;28;20053;-72
2022/05/07 05:41:41;;;;;;;47.65;27.05;;;;;;;13.04;96.71;102289.00;5019079;28;20057;-72
2022/05/07 05:44:07;;;;;;;38.58;25.30;;;;;;;13.00;97.33;102285.78;5018361;28;20071;-72
2022/05/07 05:46:32;;;;;;;43.55;25.63;;;;;;;13.06;98.68;102284.41;5014489;28;20480;-72
2022/05/07 05:48:57;;;;;;;40.60;25.20;;;;;;;13.12;97.67;102283.91;5002576;28;20026;-72
2022/05/07 05:51:23;;;;;;;41.67;25.58;;;;;;;13.15;97.13;102273.88;5019612;28;20109;-72
2022/05/07 05:53:48;;;;;;;42.75;25.88;;;;;;;13.36;97.04;102291.56;5019719;28;20097;-72
2022/05/07 05:56:13;;;;;;;45.35;25.30;;;;;;;13.38;96.96;102285.16;5020521;28;20025;-72
2022/05/07 05:58:39;;;;;;;42.65;26.15;;;;;;;13.33;98.43;102282.06;5021472;28;20080;-72
2022/05/07 06:01:06;;;;;;;48.35;26.70;;;;;;;13.47;99.14;102288.81;5003971;28;20042;-72
2022/05/07 06:03:32;;;;;;;40.20;24.55;;;;;;;13.55;98.95;102290.81;5018578;28;20437;-72
2022/05/07 06:05:57;;;;;;;41.85;25.60;;;;;;;13.65;97.73;102296.16;5020403;28;20033;-72
2022/05/07 06:08:22;;;;;;;37.72;22.83;;;;;;;13.66;95.84;102287.22;5017630;28;20030;-72
2022/05/07 06:10:52;;;;;;;37.45;24.42;;;;;;;13.85;94.70;102292.59;5004893;28;20021;-72
2022/05/07 06:13:20;;;;;;;39.63;23.77;;;;;;;13.93;94.89;102294.53;5016047;28;20045;-72
2022/05/07 06:15:51;;;;;;;43.08;26.98;;;;;;;13.97;94.51;102288.81;5022859;28;20037;-72
2022/05/07 06:18:17;;;;;;;37.85;24.35;;;;;;;14.09;94.21;102296.66;5018472;28;20409;-74
2022/05/07 06:20:43;;;;;;;40.08;23.20;;;;;;;14.18;93.43;102298.50;5021844;28;20044;-73
2022/05/07 06:23:08;;;;;;;37.17;23.48;;;;;;;14.31;92.97;102301.72;5021528;28;20030;-73
2022/05/07 06:28:17;;;;;;;38.97;24.08;;;;;;;14.60;90.96;102298.25;5010169;28;20057;-73
2022/05/07 06:30:43;;;;;;;35.30;23.27;;;;;;;14.80;90.04;102301.72;5008085;28;20117;-73
2022/05/07 06:33:08;;;;;;;33.40;20.67;;;;;;;15.04;88.48;102319.03;5009546;28;20076;-73
2022/05/07 06:35:33;;;;;;;37.53;23.38;;;;;;;15.19;87.49;102321.09;5007745;28;20022;-73
2022/05/07 06:37:59;;;;;;;36.92;21.70;;;;;;;15.51;86.40;102330.53;5009221;28;20022;-73
2022/05/07 06:40:24;;;;;;;36.42;21.90;;;;;;;15.86;85.42;102322.81;5018578;28;20042;-74
2022/05/07 06:42:50;;;;;;;31.85;20.75;;;;;;;16.08;82.31;102329.56;5006696;28;20097;-73
2022/05/07 06:45:15;;;;;;;32.28;20.17;;;;;;;16.21;82.41;102330.03;5007453;28;20635;-73
2022/05/07 06:47:41;;;;;;;32.33;19.75;;;;;;;16.35;79.83;102328.66;5016681;28;20549;-72
2022/05/07 06:50:07;;;;;;;33.83;21.42;;;;;;;16.43;80.15;102310.91;5015646;28;20432;-74
2022/05/07 06:52:42;;;;;;;39.58;21.20;;;;;;;16.54;80.64;102325.84;5012180;28;20072;-74
2022/05/07 06:55:11;;;;;;;33.13;20.42;;;;;;;16.71;80.11;102313.50;5016115;28;20439;-74
2022/05/07 06:57:36;;;;;;;31.75;20.88;;;;;;;16.92;78.99;102317.66;5008900;28;20037;-74
2022/05/07 07:00:02;;;;;;;35.60;22.27;;;;;;;17.59;80.01;102313.38;5017735;28;20037;-73
2022/05/07 07:02:27;;;;;;;36.10;22.60;;;;;;;18.40;77.13;102321.78;5015003;28;20033;-74
2022/05/07 07:04:53;;;;;;;31.73;21.00;;;;;;;19.17;72.60;102318.78;5016501;28;20060;-74
2022/05/07 07:07:24;;;;;;;35.33;21.52;;;;;;;19.37;70.77;102320.03;5019177;28;20041;-74
2022/05/07 07:09:50;;;;;;;36.90;21.67;;;;;;;19.45;70.18;102322.69;4996348;28;20107;-75
2022/05/07 07:12:15;;;;;;;32.00;21.17;;;;;;;19.27;70.43;102306.88;5013779;28;20029;-75
2022/05/07 07:14:41;;;;;;;34.65;21.60;;;;;;;19.09;71.14;102333.00;5018477;28;20850;-74
2022/05/07 07:17:06;;;;;;;32.72;20.33;;;;;;;18.85;71.05;102315.97;5016975;28;20061;-74
2022/05/07 07:19:34;;;;;;;31.13;21.80;;;;;;;18.79;72.26;102332.72;5016870;28;20112;-74
2022/05/07 07:21:59;;;;;;;33.83;21.38;;;;;;;18.63;72.35;102312.09;5007883;28;20127;-74
2022/05/07 07:24:25;;;;;;;35.45;22.50;;;;;;;18.73;72.00;102337.84;5006785;28;20038;-74
2022/05/07 07:26:51;;;;;;;32.80;21.30;;;;;;;18.62;72.83;102341.72;5012762;28;20029;-74
2022/05/07 07:29:16;;;;;;;34.47;21.45;;;;;;;18.54;72.77;102341.69;5014729;28;20054;-74
2022/05/07 07:31:41;;;;;;;32.42;20.80;;;;;;;18.65;73.78;102336.00;5005146;28;20037;-74
2022/05/07 07:34:07;;;;;;;29.90;20.48;;;;;;;18.62;71.98;102336.38;5009521;28;20452;-74
2022/05/07 07:36:32;;;;;;;31.85;20.33;;;;;;;18.60;73.00;102344.53;5013103;28;20038;-74
2022/05/07 07:38:58;;;;;;;31.17;19.20;;;;;;;18.46;73.30;102326.47;5015460;28;20030;-74
2022/05/07 07:41:24;;;;;;;33.40;21.77;;;;;;;18.48;73.14;102308.44;5014212;28;20105;-74
2022/05/07 07:43:49;;;;;;;37.33;20.42;;;;;;;18.66;73.24;102340.34;5015767;28;20144;-74
2022/05/07 07:48:58;;;;;;;31.85;20.13;;;;;;;18.62;72.75;102337.19;5012990;28;20079;-74
2022/05/07 07:51:24;;;;;;;29.13;19.35;;;;;;;18.52;72.60;102325.00;5008716;28;20405;-74
2022/05/07 07:53:49;;;;;;;31.98;20.92;;;;;;;18.68;73.08;102344.56;5007600;28;20054;-74
2022/05/07 07:56:16;;;;;;;38.13;20.45;;;;;;;18.47;72.63;102334.34;5016275;28;20091;-74
2022/05/07 07:58:42;;;;;;;32.28;20.30;;;;;;;18.50;73.17;102333.16;4994031;28;20033;-74
2022/05/07 08:01:07;;;;;;;28.67;19.30;;;;;;;18.55;72.36;102357.56;4996885;28;20037;-74
2022/05/07 08:03:33;;;;;;;29.85;19.17;;;;;;;18.39;72.61;102358.38;5010203;28;20038;-74
2022/05/07 08:05:59;;;;;;;30.73;19.17;;;;;;;18.14;73.37;102360.19;5011395;28;20037;-73
2022/05/07 08:13:53;;;;;;;29.40;20.40;;;;;;;17.33;76.44;102357.94;5012389;28;20052;-73
2022/05/07 08:16:20;;;;;;;36.40;20.00;;;;;;;17.05;77.49;102358.13;5016740;28;20033;-74
2022/05/07 08:18:46;;;;;;;34.72;19.20;;;;;;;16.89;77.99;102358.00;5008546;28;20405;-74
2022/05/07 08:21:12;;;;;;;30.23;19.85;;;;;;;16.62;79.30;102352.56;5009666;28;20113;-74
2022/05/07 08:23:38;;;;;;;29.05;19.08;;;;;;;16.58;78.98;102345.88;5005750;28;20112;-75
2022/05/07 08:26:06;;;;;;;28.27;19.00;;;;;;;16.62;79.47;102362.41;5006622;28;20038;-75
2022/05/07 08:28:32;;;;;;;37.13;20.88;;;;;;;16.49;80.35;102352.13;5008672;28;20547;-75
2022/05/07 08:30:58;;;;;;;38.05;20.55;;;;;;;16.48;83.04;102362.94;5005658;28;20567;-75
2022/05/07 08:33:23;;;;;;;37.53;22.50;;;;;;;16.33;84.31;102368.78;4991156;28;20057;-74
2022/05/07 08:35:49;;;;;;;35.95;21.45;;;;;;;16.12;85.16;102328.28;5011757;28;20037;-73
2022/05/07 08:38:15;;;;;;;39.97;23.23;;;;;;;16.23;85.49;102363.50;5012021;28;20034;-74
2022/05/07 08:40:41;;;;;;;48.40;26.65;;;;;;;16.22;86.95;102363.66;5012856;28;20018;-72
2022/05/07 08:43:07;;;;;;;50.22;25.85;;;;;;;16.22;86.83;102361.00;5012343;28;20592;-72
2022/05/07 08:45:34;;;;;;;52.72;27.65;;;;;;;16.11;87.10;102342.56;5025151;28;20478;-72
2022/05/07 08:47:59;;;;;;;45.50;27.00;;;;;;;16.30;86.97;102362.91;5010578;28;20034;-73
2022/05/07 08:50:26;;;;;;;46.35;26.98;;;;;;;16.50;86.27;102375.09;5011843;28;20030;-72
2022/05/07 08:52:53;;;;;;;49.58;26.02;;;;;;;16.61;84.90;102369.56;5009104;28;20069;-74
2022/05/07 08:55:20;;;;;;;49.97;26.20;;;;;;;16.86;86.02;102373.31;5002219;28;20560;-74
2022/05/07 08:57:50;;;;;;;41.05;24.83;;;;;;;16.75;83.30;102346.03;5007917;28;20044;-74
2022/05/07 09:00:18;;;;;;;47.67;25.70;;;;;;;16.91;82.44;102377.34;5010867;28;20457;-73
2022/05/07 09:02:49;;;;;;;44.58;23.95;;;;;;;16.64;82.45;102376.41;5013198;28;20076;-74
2022/05/07 09:05:18;;;;;;;;;;;;;;;16.47;83.85;102379.91;5011425;28;20109;-72
2022/05/07 09:08:00;;;;;;;46.67;24.52;;;;;;;17.07;82.27;102372.13;5014249;28;19921;-74
2022/05/07 09:10:27;;;;;;;49.17;24.50;;;;;;;17.51;78.80;102369.41;5007117;28;20088;-74
2022/05/07 09:12:54;;;;;;;47.63;26.85;;;;;;;17.92;77.35;102392.81;5012313;28;20026;-73
2022/05/07 09:15:20;;;;;;;35.67;21.02;;;;;;;18.15;75.43;102382.38;5010439;28;20080;-73
2022/05/07 09:17:47;;;;;;;41.05;23.30;;;;;;;18.71;74.28;102400.38;5008249;28;20548;-73
2022/05/07 09:20:18;;;;;;;35.75;21.42;;;;;;;19.09;70.92;102375.81;5010434;28;20521;-73
2022/05/07 09:22:55;;;;;;;39.78;23.30;;;;;;;17.87;75.20;102395.97;5012443;28;20530;-73
2022/05/07 09:25:27;;;;;;;42.95;24.00;;;;;;;18.43;74.43;102401.66;5009208;28;20029;-74
2022/05/07 09:27:56;;;;;;;39.17;23.88;;;;;;;18.45;74.06;102400.50;5011170;28;20041;-74
2022/05/07 09:30:24;;;;;;;45.47;25.83;;;;;;;19.18;73.03;102396.19;5009423;28;20026;-73
2022/05/07 09:32:54;;;;;;;36.70;22.17;;;;;;;18.81;73.49;102399.38;5026148;28;20505;-74
2022/05/07 09:38:08;;;;;;;37.88;23.52;;;;;;;22.98;62.28;102397.03;5017340;28;20721;-74
2022/05/07 09:40:41;;;;;;;36.90;23.70;;;;;;;23.27;59.38;102398.72;5013695;28;20021;-74
2022/05/07 09:43:09;;;;;;;39.10;23.88;;;;;;;23.74;58.28;102405.22;5019998;28;20033;-73
2022/05/07 09:45:36;;;;;;;32.55;22.17;;;;;;;22.88;60.52;102399.22;5006932;28;20040;-74
2022/05/07 09:48:03;;;;;;;33.80;22.88;;;;;;;25.05;55.81;102410.31;5012365;28;20103;-74
2022/05/07 09:58:33;;;;;;;26.38;18.60;;;;;;;24.26;55.75;102418.28;5013921;28;20506;-73
2022/05/07 10:01:25;;;;;;;29.17;17.60;;;;;;;24.75;53.72;102409.91;5012110;28;20129;-73
2022/05/07 10:04:06;;;;;;;29.67;19.20;;;;;;;25.04;53.07;102419.47;5015128;28;20112;-73
2022/05/07 10:06:34;;;;;;;32.08;19.02;;;;;;;22.39;57.64;102414.28;5016235;28;20022;-73
2022/05/07 10:09:26;;;;;;;26.05;17.33;;;;;;;21.35;61.34;102393.66;5024162;28;20026;-73
2022/05/07 10:11:55;;;;;;;24.70;17.17;;;;;;;21.61;61.19;102411.22;5011702;28;20034;-73
2022/05/07 10:14:29;;;;;;;24.40;15.35;;;;;;;21.72;61.13;102410.75;5022065;28;20033;-73
2022/05/07 10:17:12;;;;;;;22.15;15.57;;;;;;;21.49;62.08;102412.69;5015078;28;20036;-73
2022/05/07 10:19:43;;;;;;;20.80;13.52;;;;;;;21.15;62.18;102416.69;5000436;28;20029;-73
2022/05/07 10:22:21;;;;;;;16.70;9.73;;;;;;;20.65;62.46;102410.06;4996261;28;20026;-73
2022/05/07 10:24:47;;;;;;;15.57;9.90;;;;;;;20.53;63.08;102413.13;5020022;28;20026;-72
2022/05/07 10:27:29;;;;;;;19.95;11.35;;;;;;;20.20;63.92;102412.47;5025997;28;20378;-72
2022/05/07 10:30:09;;;;;;;18.02;11.52;;;;;;;19.96;64.89;102405.38;5024922;28;20053;-72
2022/05/07 10:32:58;;;;;;;17.23;10.93;;;;;;;19.75;65.83;102414.03;5025951;28;20028;-72
2022/05/07 10:35:53;;;;;;;16.98;10.48;;;;;;;19.63;66.13;102420.72;5024580;28;20112;-73
2022/05/07 10:38:27;;;;;;;19.55;10.85;;;;;;;19.61;65.97;102414.69;5002411;28;20052;-73
2022/05/07 10:40:54;;;;;;;16.25;10.00;;;;;;;20.31;66.56;102413.94;5026556;28;20103;-74
2022/05/07 10:43:33;;;;;;;16.30;9.38;;;;;;;22.19;59.76;102400.59;5023817;28;20029;-73
2022/05/07 10:46:15;;;;;;;17.05;10.70;;;;;;;22.11;59.97;102411.44;5021567;28;20065;-72
2022/05/07 10:49:04;;;;;;;24.58;10.70;;;;;;;23.70;58.23;102417.41;4999101;28;20095;-72
2022/05/07 10:51:38;;;;;;;19.33;12.43;;;;;;;24.04;55.44;102407.66;5005695;28;20099;-72
2022/05/07 10:54:19;;;;;;;17.63;12.05;;;;;;;24.10;55.11;102420.31;5010171;28;20049;-72
2022/05/07 10:56:48;;;;;;;17.95;12.45;;;;;;;23.95;55.54;102425.03;5012794;28;20045;-75
2022/05/07 10:59:14;;;;;;;16.92;11.30;;;;;;;23.76;56.55;102422.06;5009437;28;20026;-73
2022/05/07 11:01:40;;;;;;;16.77;11.55;;;;;;;23.05;57.72;102430.25;5009680;28;20026;-72
2022/05/07 11:04:06;;;;;;;15.50;11.05;;;;;;;22.55;57.89;102430.16;5008742;28;20046;-73
2022/05/07 11:06:53;;;;;;;17.58;10.60;;;;;;;22.31;58.55;102433.22;5006063;28;20677;-73
2022/05/07 11:09:25;;;;;;;13.73;9.40;;;;;;;22.10;58.43;102428.59;5022587;28;20109;-74
2022/05/07 11:11:54;;;;;;;15.23;9.95;;;;;;;22.37;58.63;102433.28;5009221;28;20034;-73
2022/05/07 11:14:24;;;;;;;29.75;11.75;;;;;;;22.18;59.31;102421.25;5008632;28;20029;-73
2022/05/07 11:16:51;;;;;;;14.68;10.38;;;;;;;21.96;59.68;102438.34;5012506;28;20168;-73
2022/05/07 11:19:32;;;;;;;14.15;8.85;;;;;;;22.01;58.37;102433.22;5015681;28;20599;-73
2022/05/07 11:22:00;;;;;;;25.92;8.18;;;;;;;22.40;58.89;102440.13;5013205;28;20024;-73
2022/05/07 11:24:27;;;;;;;15.82;6.28;;;;;;;22.75;57.60;102445.69;5010280;28;20045;-74
2022/05/07 11:26:55;;;;;;;12.10;5.85;;;;;;;22.55;58.36;102446.31;5011945;28;20060;-74
2022/05/07 11:29:21;;;;;;;8.88;5.90;;;;;;;22.30;58.30;102442.31;5021971;28;20132;-74
2022/05/07 11:32:00;;;;;;;10.13;5.10;;;;;;;21.44;60.42;102420.47;5005193;28;20033;-72
2022/05/07 11:34:31;;;;;;;10.27;5.45;;;;;;;21.11;60.82;102444.91;5003761;28;20042;-74
2022/05/07 11:37:08;;;;;;;9.50;5.05;;;;;;;20.79;62.73;102432.59;5012890;28;20034;-73
2022/05/07 11:39:34;;;;;;;15.13;5.35;;;;;;;20.30;64.38;102452.47;5012376;28;20482;-72
2022/05/07 11:41:59;;;;;;;7.90;5.25;;;;;;;20.01;64.99;102451.28;5008322;28;20030;-73
2022/05/07 11:47:29;;;;;;;6.30;3.92;;;;;;;19.90;65.44;102454.31;4964468;28;20043;-72
2022/05/07 11:50:06;;;;;;;10.25;3.60;;;;;;;20.42;64.38;102459.09;4963482;28;20041;-73
2022/05/07 11:52:33;;;;;;;9.50;5.70;;;;;;;20.82;63.13;102454.53;4960118;28;20521;-73